createdAt,value
2018-07-21T00:00:45.900Z,22.60
2018-07-21T00:05:39.150Z,22.50
2018-07-21T00:10:32.378Z,22.40
2018-07-21T00:20:18.833Z,22.10
2018-07-21T00:25:12.118Z,22.00
2018-07-21T00:30:05.603Z,21.90
2018-07-21T00:34:58.885Z,21.80
2018-07-21T00:39:52.157Z,21.60
2018-07-21T00:44:45.437Z,21.60
2018-07-21T00:49:38.669Z,21.40
2018-07-21T00:54:31.915Z,21.30
2018-07-21T00:59:25.239Z,21.20
2018-07-21T01:04:18.514Z,21.10
2018-07-21T01:09:11.793Z,21.00
2018-07-21T01:14:05.371Z,20.90
2018-07-21T01:23:51.829Z,20.70
2018-07-21T01:28:45.071Z,20.60
2018-07-21T01:33:38.282Z,20.60
2018-07-21T01:38:31.575Z,20.60
2018-07-21T01:43:24.885Z,20.50
2018-07-21T01:48:18.159Z,20.40
2018-07-21T01:53:11.372Z,20.30
2018-07-21T01:58:04.908Z,20.20
2018-07-21T02:02:58.141Z,20.20
2018-07-21T02:07:51.393Z,20.10
2018-07-21T02:12:44.737Z,20.00
2018-07-21T02:17:37.952Z,20.00
2018-07-21T02:22:31.206Z,19.90
2018-07-21T02:27:24.510Z,19.90
2018-07-21T02:32:17.728Z,19.80
2018-07-21T02:37:13.406Z,19.70
2018-07-21T02:42:06.693Z,19.60
2018-07-21T02:46:59.964Z,19.50
2018-07-21T02:51:53.176Z,19.50
2018-07-21T02:56:46.432Z,19.50
2018-07-21T03:01:39.693Z,19.50
2018-07-21T03:06:32.977Z,19.40
2018-07-21T03:11:26.262Z,19.50
2018-07-21T03:16:19.518Z,19.50
2018-07-21T03:21:12.750Z,19.40
2018-07-21T03:30:59.176Z,19.30
2018-07-21T03:35:52.798Z,19.30
2018-07-21T03:45:39.192Z,19.10
2018-07-21T03:50:33.202Z,19.00
2018-07-21T03:55:26.438Z,19.00
2018-07-21T04:00:19.681Z,19.00
2018-07-21T04:05:12.960Z,19.00
2018-07-21T04:14:59.423Z,19.00
2018-07-21T04:19:52.879Z,19.00
2018-07-21T04:24:46.098Z,18.90
2018-07-21T04:29:39.330Z,19.00
2018-07-21T04:39:25.692Z,19.00
2018-07-21T04:44:18.943Z,19.00
2018-07-21T04:49:12.173Z,19.00
2018-07-21T04:54:05.402Z,19.00
2018-07-21T05:03:51.877Z,19.10
2018-07-21T05:08:45.878Z,19.20
2018-07-21T05:13:39.843Z,19.10
2018-07-21T05:18:33.098Z,19.20
2018-07-21T05:28:19.758Z,19.40
2018-07-21T05:33:13.024Z,19.60
2018-07-21T05:52:45.917Z,23.80
2018-07-21T05:57:39.192Z,23.30
2018-07-21T06:02:32.469Z,23.40
2018-07-21T06:07:25.840Z,24.50
2018-07-21T06:12:22.090Z,26.50
2018-07-21T06:22:08.487Z,26.40
2018-07-21T06:27:01.744Z,24.80
2018-07-21T06:31:56.053Z,25.60
2018-07-21T06:36:49.335Z,26.20
2018-07-21T06:41:42.666Z,25.90
2018-07-21T06:51:30.309Z,25.20
2018-07-21T06:56:23.693Z,25.40
2018-07-21T07:01:17.212Z,25.40
2018-07-21T07:20:50.061Z,26.60
2018-07-21T07:25:43.298Z,28.30
2018-07-21T07:30:36.589Z,28.80
2018-07-21T07:35:30.186Z,29.90
2018-07-21T07:40:23.485Z,29.70
2018-07-21T07:45:16.741Z,28.70
2018-07-21T07:50:09.988Z,29.70
2018-07-21T07:55:03.225Z,30.80
2018-07-21T08:04:49.863Z,29.40
2018-07-21T08:09:43.123Z,30.90
2018-07-21T08:19:29.745Z,34.40
2018-07-21T08:24:22.948Z,35.70
2018-07-21T08:29:16.296Z,36.80
2018-07-21T08:34:09.625Z,38.10
2018-07-21T08:39:03.050Z,38.80
2018-07-21T08:43:56.374Z,38.40
2018-07-21T08:48:49.640Z,38.50
2018-07-21T08:53:45.054Z,37.90
2018-07-21T08:58:38.303Z,39.20
2018-07-21T09:03:31.534Z,39.80
2018-07-21T09:08:24.774Z,39.50
2018-07-21T09:13:18.016Z,39.80
2018-07-21T09:18:11.248Z,39.20
2018-07-21T09:23:04.585Z,37.30
2018-07-21T09:27:57.822Z,37.00
2018-07-21T09:32:51.197Z,35.70
2018-07-21T09:42:37.536Z,36.90
2018-07-21T09:52:23.960Z,38.70
2018-07-21T09:57:17.197Z,38.70
2018-07-21T10:02:10.469Z,38.60
2018-07-21T10:07:04.002Z,38.50
2018-07-21T10:11:57.291Z,37.40
2018-07-21T10:21:43.758Z,36.90
2018-07-21T10:31:36.362Z,35.50
2018-07-21T10:36:29.593Z,33.40
2018-07-21T10:41:22.884Z,32.80
2018-07-21T10:51:09.561Z,32.20
2018-07-21T10:56:02.815Z,31.90
2018-07-21T11:00:56.069Z,32.70
2018-07-21T11:05:49.631Z,32.60
2018-07-21T11:10:42.995Z,32.40
2018-07-21T11:15:36.324Z,32.40
2018-07-21T11:20:29.496Z,32.50
2018-07-21T11:25:23.091Z,32.30
2018-07-21T11:30:16.311Z,32.70
2018-07-21T11:35:09.611Z,32.50
2018-07-21T11:40:03.062Z,32.40
2018-07-21T11:44:56.315Z,32.30
2018-07-21T11:49:49.576Z,32.60
2018-07-21T11:54:43.304Z,32.60
2018-07-21T11:59:36.532Z,31.00
2018-07-21T12:04:30.473Z,33.00
2018-07-21T12:09:23.906Z,33.10
2018-07-21T12:14:17.113Z,33.10
2018-07-21T12:19:10.343Z,33.10
2018-07-21T12:24:03.899Z,32.20
2018-07-21T12:28:57.201Z,31.70
2018-07-21T12:33:50.447Z,31.80
2018-07-21T12:38:43.666Z,32.10
2018-07-21T12:43:36.977Z,32.30
2018-07-21T12:48:30.243Z,32.30
2018-07-21T12:53:23.518Z,32.60
2018-07-21T12:58:16.763Z,33.20
2018-07-21T13:03:09.986Z,33.50
2018-07-21T13:08:03.359Z,34.30
2018-07-21T13:12:56.585Z,34.80
2018-07-21T13:17:49.909Z,35.00
2018-07-21T13:22:43.123Z,34.90
2018-07-21T13:27:36.498Z,35.20
2018-07-21T13:32:29.728Z,34.60
2018-07-21T13:37:22.987Z,33.90
2018-07-21T13:42:16.203Z,33.40
2018-07-21T13:52:02.582Z,32.60
2018-07-21T13:56:55.838Z,32.20
2018-07-21T14:06:42.263Z,32.20
2018-07-21T14:11:35.500Z,31.50
2018-07-21T14:16:28.729Z,31.10
2018-07-21T14:26:15.123Z,31.30
2018-07-21T14:31:08.477Z,31.50
2018-07-21T14:36:01.707Z,31.70
2018-07-21T14:40:54.953Z,31.70
2018-07-21T14:45:48.235Z,31.70
2018-07-21T14:50:41.483Z,31.70
2018-07-21T14:55:34.785Z,31.40
2018-07-21T15:00:28.106Z,31.50
2018-07-21T15:05:21.683Z,31.80
2018-07-21T15:15:08.141Z,32.60
2018-07-21T15:20:01.392Z,32.70
2018-07-21T15:24:54.687Z,32.70
2018-07-21T15:29:47.983Z,32.60
2018-07-21T15:34:41.294Z,32.60
2018-07-21T15:39:34.595Z,32.90
2018-07-21T15:44:27.895Z,33.10
2018-07-21T15:49:21.147Z,33.30
2018-07-21T15:54:14.353Z,33.20
2018-07-21T15:59:07.996Z,32.80
2018-07-21T16:04:01.211Z,32.10
2018-07-21T16:08:54.465Z,31.20
2018-07-21T16:18:40.823Z,29.90
2018-07-21T16:23:34.096Z,29.40
2018-07-21T16:28:27.409Z,29.00
2018-07-21T16:33:20.695Z,28.70
2018-07-21T16:38:13.962Z,28.30
2018-07-21T16:43:07.309Z,28.50
2018-07-21T16:48:00.551Z,28.30
2018-07-21T16:57:50.108Z,27.20
2018-07-21T17:02:44.793Z,26.80
2018-07-21T17:07:39.675Z,26.60
2018-07-21T17:12:34.574Z,26.60
2018-07-21T17:32:09.084Z,26.40
2018-07-21T17:37:02.385Z,26.30
2018-07-21T17:41:56.517Z,26.30
2018-07-21T17:51:43.253Z,25.90
2018-07-21T17:56:36.545Z,25.80
2018-07-21T18:06:22.927Z,25.90
2018-07-21T18:11:16.222Z,25.80
2018-07-21T18:16:09.533Z,25.80
2018-07-21T18:25:56.058Z,25.60
2018-07-21T18:30:49.435Z,25.60
2018-07-21T18:35:42.669Z,25.50
2018-07-21T18:40:35.997Z,25.30
2018-07-21T18:45:31.542Z,25.10
2018-07-21T18:50:24.908Z,24.90
2018-07-21T18:55:19.163Z,24.80
2018-07-21T19:00:12.453Z,24.70
2018-07-21T19:05:05.807Z,24.50
2018-07-21T19:09:59.062Z,24.40
2018-07-21T19:14:52.291Z,24.40
2018-07-21T19:19:51.418Z,24.30
2018-07-21T19:29:37.973Z,24.10
2018-07-21T19:34:31.210Z,23.90
2018-07-21T19:39:25.484Z,23.80
2018-07-21T19:44:18.701Z,23.80
2018-07-21T19:49:16.913Z,23.70
2018-07-21T20:03:57.486Z,23.80
2018-07-21T20:08:50.734Z,23.70
2018-07-21T20:13:43.942Z,23.50
2018-07-21T20:18:37.805Z,23.40
2018-07-21T20:33:21.382Z,23.20
2018-07-21T20:43:08.481Z,22.90
2018-07-21T20:48:01.786Z,22.80
2018-07-21T20:52:54.993Z,22.70
2018-07-21T20:57:48.287Z,22.70
2018-07-21T21:02:41.551Z,22.80
2018-07-21T21:07:34.771Z,22.90
2018-07-21T21:12:27.999Z,23.00
2018-07-21T21:17:21.256Z,22.90
2018-07-21T21:22:14.565Z,22.80
2018-07-21T21:27:08.353Z,22.80
2018-07-21T21:32:01.557Z,22.80
2018-07-21T21:36:54.801Z,22.70
2018-07-21T21:41:48.091Z,22.80
2018-07-21T21:46:41.315Z,22.70
2018-07-21T21:51:34.575Z,22.70
2018-07-21T21:56:27.839Z,22.70
2018-07-21T22:01:21.166Z,22.60
2018-07-21T22:06:14.479Z,22.60
2018-07-21T22:16:00.966Z,22.50
2018-07-21T22:20:54.243Z,22.50
2018-07-21T22:25:47.468Z,22.50
2018-07-21T22:35:33.834Z,22.70
2018-07-21T22:40:27.134Z,22.70
2018-07-21T22:45:20.348Z,22.60
2018-07-21T22:50:13.612Z,22.60
2018-07-21T22:55:06.850Z,22.60
2018-07-21T23:00:00.285Z,22.60
2018-07-21T23:09:46.684Z,22.60
2018-07-21T23:14:39.911Z,22.50
2018-07-21T23:19:33.179Z,22.50
2018-07-21T23:29:19.572Z,22.40
2018-07-21T23:34:12.863Z,22.40
2018-07-21T23:39:09.259Z,22.40
2018-07-21T23:48:56.778Z,22.20
2018-07-21T23:53:50.065Z,22.10
2018-07-21T23:58:43.298Z,22.20
